createdAt,value
2022-09-02T00:00:08.826Z,9.63
2022-09-02T00:05:32.238Z,9.66
2022-09-02T00:10:38.581Z,9.64
2022-09-02T00:15:42.907Z,9.60
2022-09-02T00:20:47.597Z,9.53
2022-09-02T00:25:51.214Z,9.44
2022-09-02T00:30:54.936Z,9.41
2022-09-02T00:36:02.854Z,9.39
2022-09-02T00:41:09.952Z,9.36
2022-09-02T00:46:15.622Z,9.24
2022-09-02T00:51:19.135Z,9.16
2022-09-02T00:56:26.849Z,9.12
2022-09-02T01:01:30.448Z,9.09
2022-09-02T01:06:34.189Z,9.12
2022-09-02T01:11:48.456Z,9.14
2022-09-02T01:16:56.536Z,9.14
2022-09-02T01:22:00.092Z,9.16
2022-09-02T01:27:03.711Z,9.15
2022-09-02T01:32:07.126Z,9.15
2022-09-02T01:37:10.844Z,9.18
2022-09-02T01:42:15.181Z,9.18
2022-09-02T01:47:20.640Z,9.19
2022-09-02T01:52:25.390Z,9.20
2022-09-02T01:57:28.799Z,9.27
2022-09-02T02:02:32.111Z,9.36
2022-09-02T02:07:35.631Z,9.46
2022-09-02T02:12:40.470Z,9.57
2022-09-02T02:17:44.296Z,9.62
2022-09-02T02:22:48.322Z,9.63
2022-09-02T02:27:52.459Z,9.69
2022-09-02T02:32:56.990Z,9.78
2022-09-02T02:38:01.093Z,9.86
2022-09-02T02:43:07.401Z,9.91
2022-09-02T02:48:10.817Z,10.03
2022-09-02T02:53:14.403Z,10.16
2022-09-02T02:58:18.665Z,10.27
2022-09-02T03:03:22.929Z,10.35
2022-09-02T03:08:27.232Z,10.43
2022-09-02T03:13:32.751Z,10.50
2022-09-02T03:18:36.318Z,10.59
2022-09-02T03:23:40.033Z,10.64
2022-09-02T03:28:43.444Z,10.67
2022-09-02T03:33:47.062Z,10.72
2022-09-02T03:38:50.885Z,10.72
2022-09-02T03:43:54.196Z,10.73
2022-09-02T03:48:57.610Z,10.77
2022-09-02T03:54:02.961Z,10.85
2022-09-02T03:59:06.481Z,10.85
2022-09-02T04:04:10.203Z,10.94
2022-09-02T04:09:13.514Z,11.07
2022-09-02T04:14:17.442Z,11.15
2022-09-02T04:19:20.751Z,11.22
2022-09-02T04:24:24.781Z,11.36
2022-09-02T04:29:28.086Z,11.49
2022-09-02T04:34:32.627Z,11.62
2022-09-02T04:39:36.144Z,11.73
2022-09-02T04:44:39.409Z,11.80
2022-09-02T04:49:43.586Z,11.87
2022-09-02T04:54:47.713Z,11.95
2022-09-02T04:59:50.819Z,12.14
2022-09-02T05:04:54.131Z,12.34
2022-09-02T05:09:59.324Z,12.60
2022-09-02T05:15:03.415Z,12.93
2022-09-02T05:20:09.342Z,13.18
2022-09-02T05:25:12.700Z,13.43
2022-09-02T05:30:16.829Z,13.59
2022-09-02T05:35:20.138Z,13.70
2022-09-02T05:40:24.001Z,13.85
2022-09-02T05:45:27.274Z,13.99
2022-09-02T05:50:31.915Z,13.99
2022-09-02T05:55:36.045Z,14.01
2022-09-02T06:00:40.071Z,14.15
2022-09-02T06:05:43.281Z,14.30
2022-09-02T06:10:46.699Z,14.47
2022-09-02T06:15:51.377Z,14.66
2022-09-02T06:20:55.055Z,14.73
2022-09-02T06:25:58.365Z,14.68
2022-09-02T06:31:09.057Z,14.69
2022-09-02T06:36:15.851Z,14.65
2022-09-02T06:41:23.761Z,14.73
2022-09-02T06:46:30.779Z,14.91
2022-09-02T06:51:37.883Z,15.08
2022-09-02T06:56:44.908Z,15.34
2022-09-02T07:01:51.486Z,15.70
2022-09-02T07:06:56.089Z,16.07
2022-09-02T07:12:05.056Z,16.37
2022-09-02T07:17:10.617Z,16.58
2022-09-02T07:22:14.625Z,16.81
2022-09-02T07:27:23.051Z,16.90
2022-09-02T07:32:26.360Z,17.05
2022-09-02T07:37:29.773Z,17.20
2022-09-02T07:42:33.193Z,17.46
2022-09-02T07:47:36.813Z,17.86
2022-09-02T07:52:41.038Z,18.18
2022-09-02T07:57:46.658Z,18.47
2022-09-02T08:02:50.497Z,18.65
2022-09-02T08:07:54.041Z,18.83
2022-09-02T08:13:01.244Z,18.86
2022-09-02T08:18:06.042Z,18.73
2022-09-02T08:23:12.426Z,18.69
2022-09-02T08:28:22.152Z,18.72
2022-09-02T08:33:26.210Z,18.56
2022-09-02T08:38:29.472Z,18.55
2022-09-02T08:43:44.497Z,18.71
2022-09-02T08:48:57.754Z,18.64
2022-09-02T08:54:23.640Z,18.59
2022-09-02T08:59:29.493Z,18.56
2022-09-02T09:04:54.428Z,18.77
2022-09-02T09:10:19.056Z,19.12
2022-09-02T09:16:06.331Z,19.70
2022-09-02T09:21:11.245Z,20.48
2022-09-02T09:26:19.286Z,20.71
2022-09-02T09:31:29.997Z,20.71
2022-09-02T09:36:42.564Z,20.54
2022-09-02T09:41:48.106Z,20.36
2022-09-02T09:47:02.188Z,20.07
2022-09-02T09:52:06.010Z,20.04
2022-09-02T09:57:21.414Z,20.05
2022-09-02T10:02:27.975Z,20.04
2022-09-02T10:07:36.117Z,20.02
2022-09-02T10:12:39.427Z,19.87
2022-09-02T10:17:56.403Z,20.05
2022-09-02T10:23:14.720Z,20.20
2022-09-02T10:28:41.893Z,20.24
2022-09-02T10:33:54.625Z,20.24
2022-09-02T10:39:13.368Z,20.09
2022-09-02T10:44:30.735Z,19.90
2022-09-02T10:50:00.567Z,19.78
2022-09-02T10:55:10.025Z,19.85
2022-09-02T11:00:16.716Z,19.95
2022-09-02T11:05:35.384Z,19.95
2022-09-02T11:10:44.123Z,20.22
2022-09-02T11:16:06.631Z,20.26
2022-09-02T11:21:43.074Z,20.31
2022-09-02T11:26:54.575Z,20.51
2022-09-02T11:32:10.891Z,20.81
2022-09-02T11:37:43.793Z,21.16
2022-09-02T11:43:03.491Z,21.62
2022-09-02T11:48:23.107Z,22.11
2022-09-02T11:53:47.896Z,22.83
2022-09-02T11:58:58.683Z,22.63
2022-09-02T12:09:47.715Z,22.55
2022-09-02T12:14:51.317Z,22.98
2022-09-02T12:19:55.853Z,23.41
2022-09-02T12:25:03.732Z,23.32
2022-09-02T12:30:11.778Z,22.98
2022-09-02T12:35:35.289Z,23.13
2022-09-02T12:41:05.623Z,22.77
2022-09-02T12:46:17.905Z,22.41
2022-09-02T12:51:55.252Z,22.40
2022-09-02T12:56:59.149Z,22.08
2022-09-02T13:02:29.592Z,22.11
2022-09-02T13:08:02.553Z,21.93
2022-09-02T13:13:34.379Z,22.13
2022-09-02T13:19:17.249Z,22.42
2022-09-02T13:24:40.835Z,22.89
2022-09-02T13:30:04.480Z,23.59
2022-09-02T13:35:23.744Z,23.87
2022-09-02T13:40:36.334Z,24.37
2022-09-02T13:45:40.260Z,24.72
2022-09-02T13:50:47.974Z,24.71
2022-09-02T13:55:54.767Z,24.86
2022-09-02T14:01:19.060Z,24.93
2022-09-02T14:06:38.868Z,24.94
2022-09-02T14:11:46.547Z,24.59
2022-09-02T14:16:50.662Z,23.75
2022-09-02T14:21:57.591Z,24.50
2022-09-02T14:27:01.121Z,28.69
2022-09-02T14:32:13.835Z,33.16
2022-09-02T14:37:50.751Z,36.84
2022-09-02T14:42:57.739Z,40.18
2022-09-02T14:48:12.322Z,42.38
2022-09-02T14:53:22.756Z,41.63
2022-09-02T14:58:28.213Z,41.49
2022-09-02T15:03:37.206Z,39.33
2022-09-02T15:08:40.516Z,34.26
2022-09-02T15:13:43.828Z,30.39
2022-09-02T15:18:47.137Z,34.94
2022-09-02T15:23:51.373Z,40.93
2022-09-02T15:28:54.886Z,44.86
2022-09-02T15:33:59.121Z,46.47
2022-09-02T15:39:02.430Z,45.02
2022-09-02T15:44:10.044Z,42.39
2022-09-02T15:49:18.425Z,42.30
2022-09-02T15:54:24.247Z,41.96
2022-09-02T15:59:28.474Z,41.98
2022-09-02T16:04:32.091Z,40.89
2022-09-02T16:09:35.508Z,40.64
2022-09-02T16:14:38.815Z,40.75
2022-09-02T16:19:42.124Z,41.54
2022-09-02T16:24:45.435Z,41.88
2022-09-02T16:29:49.361Z,40.08
2022-09-02T16:34:54.002Z,38.67
2022-09-02T16:39:57.388Z,37.54
2022-09-02T16:45:00.931Z,35.78
2022-09-02T16:50:04.348Z,34.41
2022-09-02T16:55:08.170Z,33.55
2022-09-02T17:00:12.195Z,32.14
2022-09-02T17:05:17.739Z,29.96
2022-09-02T17:10:22.906Z,28.80
2022-09-02T17:15:26.430Z,27.21
2022-09-02T17:20:29.740Z,24.98
2022-09-02T17:25:33.324Z,22.34
2022-09-02T17:30:36.608Z,20.35
2022-09-02T17:35:39.876Z,19.05
2022-09-02T17:41:01.619Z,18.09
2022-09-02T17:46:09.255Z,17.31
2022-09-02T17:51:13.055Z,16.73
2022-09-02T17:56:45.858Z,16.26
2022-09-02T18:01:59.517Z,15.87
2022-09-02T18:07:21.009Z,15.54
2022-09-02T18:12:24.973Z,15.23
2022-09-02T18:17:36.581Z,15.02
2022-09-02T18:22:47.363Z,14.79
2022-09-02T18:27:59.484Z,14.61
2022-09-02T18:33:26.754Z,14.44
2022-09-02T18:38:54.130Z,14.26
2022-09-02T18:44:11.160Z,14.09
2022-09-02T18:49:15.889Z,13.96
2022-09-02T18:54:42.461Z,13.82
2022-09-02T19:00:02.107Z,13.70
2022-09-02T19:05:10.075Z,13.57
2022-09-02T19:10:14.511Z,13.45
2022-09-02T19:15:20.254Z,13.37
2022-09-02T19:20:24.307Z,13.28
2022-09-02T19:25:31.086Z,13.21
2022-09-02T19:30:37.433Z,13.14
2022-09-02T19:35:49.307Z,13.05
2022-09-02T19:40:53.832Z,12.99
2022-09-02T19:45:58.002Z,12.92
2022-09-02T19:51:01.904Z,12.85
2022-09-02T19:56:06.942Z,12.78
2022-09-02T20:01:10.504Z,12.71
2022-09-02T20:06:14.073Z,12.63
2022-09-02T20:11:18.062Z,12.54
2022-09-02T20:16:25.192Z,12.44
2022-09-02T20:21:31.070Z,12.35
2022-09-02T20:26:52.633Z,12.27
2022-09-02T20:32:04.727Z,12.19
2022-09-02T20:37:50.651Z,12.13
2022-09-02T20:43:13.036Z,12.06
2022-09-02T20:48:38.523Z,11.99
2022-09-02T20:54:21.675Z,11.92
2022-09-02T20:59:31.636Z,11.86
2022-09-02T21:04:41.149Z,11.80
2022-09-02T21:10:17.074Z,11.76
2022-09-02T21:15:28.161Z,11.68
2022-09-02T21:20:47.444Z,11.59
2022-09-02T21:25:56.187Z,11.52
2022-09-02T21:31:08.255Z,11.43
2022-09-02T21:36:18.780Z,11.37
2022-09-02T21:41:29.774Z,11.29
2022-09-02T21:46:35.977Z,11.23
2022-09-02T21:52:26.569Z,11.15
2022-09-02T21:57:52.266Z,11.08
2022-09-02T22:03:07.085Z,11.05
2022-09-02T22:08:17.566Z,10.99
2022-09-02T22:13:22.623Z,10.91
2022-09-02T22:18:45.455Z,10.86
2022-09-02T22:23:54.735Z,10.78
2022-09-02T22:29:07.538Z,10.67
2022-09-02T22:34:15.658Z,10.58
2022-09-02T22:39:24.259Z,10.49
2022-09-02T22:45:06.551Z,10.43
2022-09-02T22:50:33.415Z,10.33
2022-09-02T22:56:03.351Z,10.28
2022-09-02T23:01:31.624Z,10.25
2022-09-02T23:06:34.956Z,10.21
2022-09-02T23:12:06.646Z,10.16
2022-09-02T23:17:23.831Z,10.06
2022-09-02T23:22:51.141Z,10.01
2022-09-02T23:27:58.856Z,9.97
2022-09-02T23:33:19.777Z,9.93
2022-09-02T23:38:47.257Z,9.88
2022-09-02T23:43:53.027Z,9.83
2022-09-02T23:49:05.859Z,9.81
2022-09-02T23:54:22.995Z,9.77
2022-09-02T23:59:47.405Z,9.72
